Time;durP1;ratioP1;P1;durP2;ratioP2;P2;SDS_P1;SDS_P2;PMS_P1;PMS_P2;Temp;Humidity;BMP_temperature;BMP_pressure;BME280_temperature;BME280_humidity;BME280_pressure;Samples;Min_cycle;Max_cycle;Signal;HPM_P1;HPM_P2
2023/03/16 00:02:57;;;;;;;36.10;19.15;;;;;;;6.82;95.81;99403.22;1673570;86;21204;-87
2023/03/16 00:06:04;;;;;;;36.50;12.73;;;;;;;6.79;95.65;99399.99;1672483;86;21192;-87
2023/03/16 00:09:09;;;;;;;41.13;13.15;;;;;;;6.82;95.72;99395.06;1673677;86;21236;-87
2023/03/16 00:12:22;;;;;;;33.15;9.90;;;;;;;6.80;95.69;99385.38;1673822;86;21204;-87
2023/03/16 00:15:28;;;;;;;29.92;11.80;;;;;;;6.75;95.99;99379.62;1651510;86;21256;-87
2023/03/16 00:18:37;;;;;;;31.93;9.53;;;;;;;6.74;96.36;99379.29;1672190;86;21197;-88
2023/03/16 00:21:42;;;;;;;25.82;9.70;;;;;;;6.76;96.49;99378.08;1673860;86;21208;-87
2023/03/16 00:24:48;;;;;;;37.53;10.03;;;;;;;6.77;96.42;99374.84;1672995;86;21200;-88
2023/03/16 00:27:54;;;;;;;27.93;10.48;;;;;;;6.68;96.73;99375.89;1672273;85;21244;-87
2023/03/16 00:30:59;;;;;;;35.70;9.85;;;;;;;6.69;96.80;99375.73;1672856;86;21153;-87
2023/03/16 00:34:05;;;;;;;32.55;9.05;;;;;;;6.70;96.60;99377.42;1673615;86;21870;-87
2023/03/16 00:37:12;;;;;;;29.00;9.48;;;;;;;6.68;96.87;99378.60;1673805;86;21208;-87
2023/03/16 00:40:21;;;;;;;26.42;9.60;;;;;;;6.63;97.15;99370.97;1674178;86;21228;-87
2023/03/16 00:43:27;;;;;;;31.95;9.60;;;;;;;6.62;97.07;99374.72;1673575;86;21197;-87
2023/03/16 00:46:34;;;;;;;28.30;9.70;;;;;;;6.62;96.99;99366.56;1673775;86;21775;-87
2023/03/16 00:49:41;;;;;;;24.40;9.43;;;;;;;6.49;97.50;99366.25;1673403;85;21232;-88
2023/03/16 00:52:48;;;;;;;31.27;8.73;;;;;;;6.60;97.64;99361.31;1672404;86;21338;-87
2023/03/16 00:55:53;;;;;;;27.27;9.55;;;;;;;6.57;97.40;99366.24;1672529;86;21240;-87
2023/03/16 00:59:00;;;;;;;19.40;9.15;;;;;;;6.54;97.27;99366.58;1673552;86;21208;-87
2023/03/16 01:02:06;;;;;;;24.63;9.90;;;;;;;6.53;97.71;99360.81;1673576;86;21201;-87
2023/03/16 01:05:15;;;;;;;34.30;11.18;;;;;;;6.54;97.48;99361.14;1672944;86;21265;-87
2023/03/16 01:08:21;;;;;;;24.65;10.10;;;;;;;6.53;97.69;99360.30;1673354;86;21184;-87
2023/03/16 01:11:28;;;;;;;33.05;10.25;;;;;;;6.56;97.60;99361.84;1673644;86;21193;-87
2023/03/16 01:14:34;;;;;;;42.67;11.85;;;;;;;6.56;97.76;99356.40;1673085;86;22468;-87
2023/03/16 01:17:40;;;;;;;31.75;10.65;;;;;;;6.53;98.07;99364.38;1673686;86;21216;-87
2023/03/16 01:20:49;;;;;;;33.48;11.80;;;;;;;6.55;98.33;99362.35;1673399;86;21220;-86
2023/03/16 01:23:57;;;;;;;26.02;11.60;;;;;;;6.46;98.53;99359.31;1672358;86;21216;-87
2023/03/16 01:27:03;;;;;;;29.37;11.35;;;;;;;6.39;99.14;99367.28;1673660;86;21168;-87
2023/03/16 01:30:11;;;;;;;41.90;11.85;;;;;;;6.40;99.53;99367.65;1672542;86;21247;-86
2023/03/16 01:33:17;;;;;;;27.52;11.95;;;;;;;6.30;100.00;99376.47;1673693;86;21220;-87
2023/03/16 01:36:24;;;;;;;40.17;11.83;;;;;;;6.27;100.00;99373.27;1672523;86;21279;-88
2023/03/16 01:39:30;;;;;;;39.27;12.70;;;;;;;6.28;100.00;99376.31;1673894;86;21220;-87
2023/03/16 01:42:37;;;;;;;32.85;11.97;;;;;;;6.35;100.00;99386.33;1673776;86;21200;-88
2023/03/16 01:46:17;;;;;;;39.23;11.57;;;;;;;6.27;100.00;99390.41;1672710;86;21240;-87
2023/03/16 01:49:33;;;;;;;28.73;11.43;;;;;;;6.21;100.00;99380.23;1673357;86;21200;-86
2023/03/16 01:52:41;;;;;;;30.02;12.25;;;;;;;6.22;100.00;99372.94;1671976;86;21243;-86
2023/03/16 01:55:46;;;;;;;37.48;13.15;;;;;;;6.27;100.00;99379.55;1673280;86;21283;-87
2023/03/16 01:58:52;;;;;;;38.70;15.03;;;;;;;6.40;100.00;99377.67;1673268;86;21200;-87
2023/03/16 02:02:00;;;;;;;37.58;15.83;;;;;;;6.42;100.00;99370.70;1673463;86;21200;-87
2023/03/16 02:05:16;;;;;;;40.92;13.98;;;;;;;6.38;100.00;99369.67;1673389;86;21275;-88
2023/03/16 02:08:08;;;;;;;30.68;13.20;;;;;;;6.27;100.00;99371.40;1671912;86;21248;-87
2023/03/16 02:11:16;;;;;;;43.90;15.60;;;;;;;6.30;100.00;99368.83;1673134;86;21260;-86
2023/03/16 02:14:23;;;;;;;35.92;14.38;;;;;;;6.34;100.00;99371.03;1672356;85;21224;-88
2023/03/16 02:17:35;;;;;;;28.95;14.38;;;;;;;6.33;100.00;99367.98;1673184;86;21307;-87
2023/03/16 02:20:52;;;;;;;36.03;13.35;;;;;;;6.35;100.00;99365.09;1671811;86;21228;-86
2023/03/16 02:23:58;;;;;;;36.45;14.38;;;;;;;6.30;100.00;99371.55;1673289;86;21216;-87
2023/03/16 02:27:09;;;;;;;44.75;15.10;;;;;;;6.34;100.00;99371.03;1671870;86;21193;-87
2023/03/16 02:30:24;;;;;;;38.95;17.82;;;;;;;6.33;100.00;99367.14;1672632;86;21255;-87
2023/03/16 02:33:30;;;;;;;35.52;17.25;;;;;;;6.37;100.00;99361.19;1673264;86;21216;-88
2023/03/16 02:36:36;;;;;;;35.88;15.78;;;;;;;6.37;100.00;99347.61;1672380;86;21220;-87
2023/03/16 02:39:44;;;;;;;42.65;16.87;;;;;;;6.40;100.00;99343.20;1672157;86;21194;-87
2023/03/16 02:42:53;;;;;;;36.40;15.35;;;;;;;6.26;100.00;99327.61;1672405;86;21871;-88
2023/03/16 02:46:05;;;;;;;43.90;16.05;;;;;;;6.28;100.00;99326.92;1673285;86;21189;-87
2023/03/16 02:49:24;;;;;;;32.73;14.78;;;;;;;6.34;100.00;99325.38;1673620;86;21263;-87
2023/03/16 02:52:29;;;;;;;51.15;17.65;;;;;;;6.25;100.00;99319.62;1676036;85;21228;-87
2023/03/16 02:55:34;;;;;;;38.23;16.27;;;;;;;6.22;100.00;99317.27;1678585;85;21236;-87
2023/03/16 02:58:40;;;;;;;39.15;16.35;;;;;;;6.25;100.00;99316.91;1678710;85;21200;-87
2023/03/16 03:01:46;;;;;;;38.10;15.93;;;;;;;6.19;100.00;99323.03;1677553;85;21208;-87
2023/03/16 03:04:47;;;;;;;42.67;17.32;;;;;;;6.27;100.00;99325.23;1678857;85;21200;-87
2023/03/16 03:07:53;;;;;;;28.92;14.75;;;;;;;6.30;100.00;99334.88;1677434;85;21276;-87
2023/03/16 03:10:59;;;;;;;33.78;14.78;;;;;;;6.28;100.00;99328.28;1678992;85;21251;-87
2023/03/16 03:14:04;;;;;;;43.75;16.37;;;;;;;6.24;100.00;99335.06;1678932;85;21197;-87
2023/03/16 03:17:13;;;;;;;32.50;15.72;;;;;;;6.38;100.00;99337.08;1678066;85;21236;-87
2023/03/16 03:20:20;;;;;;;36.05;14.68;;;;;;;6.43;100.00;99339.27;1678955;85;21192;-87
2023/03/16 03:23:27;;;;;;;38.42;17.67;;;;;;;6.44;100.00;99336.05;1678483;85;21279;-87
2023/03/16 03:26:32;;;;;;;43.05;17.12;;;;;;;6.38;100.00;99333.52;1678671;85;21184;-87
2023/03/16 03:29:40;;;;;;;46.55;19.82;;;;;;;6.39;100.00;99331.97;1677531;85;21272;-87
2023/03/16 03:32:47;;;;;;;53.15;19.52;;;;;;;6.43;100.00;99329.77;1677834;85;21204;-87
2023/03/16 03:36:04;;;;;;;49.10;18.42;;;;;;;6.40;100.00;99339.13;1679096;85;21830;-87
2023/03/16 03:39:09;;;;;;;44.55;20.08;;;;;;;6.43;100.00;99339.78;1678223;85;21287;-88
2023/03/16 03:42:16;;;;;;;37.00;18.77;;;;;;;6.48;100.00;99332.81;1678875;85;21196;-88
2023/03/16 03:45:23;;;;;;;39.67;21.45;;;;;;;6.49;100.00;99339.09;1678801;85;21192;-87
2023/03/16 03:48:23;;;;;;;46.00;21.68;;;;;;;6.38;100.00;99345.73;1677810;85;21196;-87
2023/03/16 03:51:30;;;;;;;46.73;25.92;;;;;;;6.39;100.00;99348.27;1678969;85;21204;-87
2023/03/16 03:54:37;;;;;;;44.60;21.20;;;;;;;6.39;100.00;99356.94;1672629;86;21216;-87
2023/03/16 03:57:43;;;;;;;48.02;19.85;;;;;;;6.33;100.00;99351.69;1672845;86;21240;-88
2023/03/16 04:00:43;;;;;;;35.73;17.92;;;;;;;6.32;100.00;99349.16;1673966;86;21199;-87
2023/03/16 04:03:49;;;;;;;45.15;20.32;;;;;;;6.34;100.00;99347.09;1648103;86;21208;-87
2023/03/16 04:06:54;;;;;;;45.95;20.08;;;;;;;6.34;100.00;99343.02;1673626;86;21184;-87
2023/03/16 04:09:59;;;;;;;45.70;19.07;;;;;;;6.47;100.00;99354.72;1672529;86;21236;-87
2023/03/16 04:13:06;;;;;;;48.80;22.35;;;;;;;6.53;100.00;99356.73;1672350;86;21212;-87
2023/03/16 04:16:15;;;;;;;55.35;20.48;;;;;;;6.56;100.00;99352.33;1673723;86;21188;-86
2023/03/16 04:19:21;;;;;;;38.58;19.87;;;;;;;6.62;100.00;99351.11;1673444;86;21192;-87
2023/03/16 04:22:29;;;;;;;56.58;20.68;;;;;;;6.64;100.00;99360.47;1673673;86;21635;-87
2023/03/16 04:25:37;;;;;;;46.33;19.90;;;;;;;6.75;100.00;99360.59;1673531;86;21208;-87
2023/03/16 04:28:46;;;;;;;41.55;19.75;;;;;;;6.81;100.00;99360.73;1646633;86;21204;-87
2023/03/16 04:31:52;;;;;;;52.35;21.33;;;;;;;6.76;100.00;99371.28;1671813;86;21224;-88
2023/03/16 04:34:55;;;;;;;43.48;18.05;;;;;;;6.72;100.00;99369.92;1672819;86;21244;-88
2023/03/16 04:37:52;;;;;;;49.95;20.30;;;;;;;6.72;100.00;99365.01;1672630;86;21292;-88
2023/03/16 04:40:40;;;;;;;50.48;18.45;;;;;;;6.65;100.00;99362.16;1670864;86;21215;-87
2023/03/16 04:43:34;;;;;;;46.75;21.30;;;;;;;6.66;100.00;99364.69;1671796;86;21953;-86
2023/03/16 04:46:22;;;;;;;54.83;19.02;;;;;;;6.74;100.00;99369.78;1671372;86;21256;-87
2023/03/16 04:49:16;;;;;;;50.63;19.27;;;;;;;6.65;100.00;99359.44;1672314;85;21910;-88
2023/03/16 04:52:21;;;;;;;46.80;20.77;;;;;;;6.70;100.00;99357.55;1673383;86;21204;-87
2023/03/16 04:55:27;;;;;;;44.30;19.75;;;;;;;6.64;100.00;99358.59;1672553;85;21228;-87
2023/03/16 04:58:33;;;;;;;48.08;19.67;;;;;;;6.61;100.00;99356.72;1672854;86;21232;-88
2023/03/16 05:01:39;;;;;;;46.15;19.17;;;;;;;6.59;100.00;99353.34;1672352;86;21193;-87
2023/03/16 05:04:45;;;;;;;50.17;20.52;;;;;;;6.59;100.00;99350.11;1673537;86;21201;-87
2023/03/16 05:07:51;;;;;;;42.40;19.65;;;;;;;6.61;100.00;99348.06;1671929;86;21212;-86
2023/03/16 05:11:04;;;;;;;49.35;18.82;;;;;;;6.64;100.00;99349.59;1672506;86;21834;-87
2023/03/16 05:14:11;;;;;;;52.03;19.73;;;;;;;6.66;100.00;99354.33;1673494;86;21205;-86
2023/03/16 05:17:19;;;;;;;45.03;20.90;;;;;;;6.68;100.00;99359.09;1671843;86;21161;-87
2023/03/16 05:20:25;;;;;;;41.92;18.82;;;;;;;6.72;100.00;99367.73;1648030;86;22465;-86
2023/03/16 05:23:31;;;;;;;48.48;19.12;;;;;;;6.80;100.00;99371.27;1673756;86;21260;-86
2023/03/16 05:26:37;;;;;;;42.23;17.92;;;;;;;6.87;100.00;99380.95;1672314;86;21251;-87
2023/03/16 05:29:45;;;;;;;45.85;18.85;;;;;;;6.93;100.00;99382.11;1672601;86;21537;-86
2023/03/16 05:32:53;;;;;;;42.75;18.30;;;;;;;6.94;100.00;99380.57;1673843;86;21201;-87
2023/03/16 05:36:01;;;;;;;52.95;18.70;;;;;;;7.06;100.00;99387.84;1672259;85;21209;-87
2023/03/16 05:39:09;;;;;;;42.98;18.30;;;;;;;7.08;100.00;99383.06;1672775;86;21804;-87
2023/03/16 05:42:15;;;;;;;44.55;18.77;;;;;;;7.10;100.00;99381.84;1673675;86;21828;-87
2023/03/16 05:45:22;;;;;;;40.60;17.17;;;;;;;7.14;100.00;99387.79;1672315;86;21256;-87
2023/03/16 05:48:30;;;;;;;41.00;17.48;;;;;;;7.18;100.00;99397.30;1673349;86;21252;-87
2023/03/16 05:51:38;;;;;;;45.98;19.30;;;;;;;7.20;100.00;99397.11;1672389;85;21256;-87
2023/03/16 05:54:46;;;;;;;42.88;19.12;;;;;;;7.23;100.00;99393.53;1673355;85;21545;-87
2023/03/16 05:57:51;;;;;;;54.95;18.60;;;;;;;7.30;100.00;99394.53;1641810;87;21212;-86
2023/03/16 06:00:58;;;;;;;39.78;16.85;;;;;;;7.38;100.00;99401.78;1669490;86;21283;-86
2023/03/16 06:04:06;;;;;;;54.58;18.37;;;;;;;7.49;100.00;99395.96;1641540;87;21212;-87
2023/03/16 06:07:12;;;;;;;51.05;17.02;;;;;;;7.57;100.00;99400.48;1670384;86;21191;-87
2023/03/16 06:10:18;;;;;;;38.50;16.67;;;;;;;7.64;100.00;99402.84;1642138;87;22626;-88
2023/03/16 06:13:28;;;;;;;43.13;18.20;;;;;;;7.66;100.00;99404.86;1670159;86;21247;-87
2023/03/16 06:16:35;;;;;;;185.67;98.67;;;;;;;7.72;100.00;99400.08;1642288;87;21279;-87
2023/03/16 06:19:41;;;;;;;50.20;25.95;;;;;;;7.73;100.00;99393.60;1669748;86;21798;-87
2023/03/16 06:22:48;;;;;;;57.50;25.60;;;;;;;7.69;100.00;99398.55;1641774;87;21156;-87
2023/03/16 06:25:58;;;;;;;51.15;23.62;;;;;;;7.66;100.00;99404.34;1668912;86;21207;-86
2023/03/16 06:29:05;;;;;;;55.48;21.95;;;;;;;7.62;100.00;99396.72;1642973;87;21274;-87
2023/03/16 06:32:12;;;;;;;184.18;75.80;;;;;;;7.57;100.00;99397.77;1669176;86;21279;-87
2023/03/16 06:35:18;;;;;;;79.92;39.98;;;;;;;7.64;100.00;99392.80;1643243;87;21204;-87
2023/03/16 06:38:26;;;;;;;56.20;23.02;;;;;;;7.71;100.00;99392.91;1642842;87;21248;-87
2023/03/16 06:41:27;;;;;;;47.20;19.27;;;;;;;7.67;100.00;99385.65;1643280;87;21247;-87
2023/03/16 06:44:35;;;;;;;56.60;25.12;;;;;;;7.67;100.00;99388.38;1671114;86;21196;-87
2023/03/16 06:47:42;;;;;;;44.00;16.85;;;;;;;7.66;100.00;99390.73;1641861;86;21294;-87
2023/03/16 06:50:48;;;;;;;42.73;17.12;;;;;;;7.61;100.00;99389.06;1669340;86;21192;-87
2023/03/16 06:53:53;;;;;;;36.20;16.32;;;;;;;7.60;100.00;99383.30;1641918;87;21215;-86
2023/03/16 06:57:02;;;;;;;41.90;18.45;;;;;;;7.57;100.00;99385.00;1644316;86;21252;-87
2023/03/16 07:00:08;;;;;;;57.17;20.77;;;;;;;7.57;100.00;99385.52;1672124;86;21272;-87
2023/03/16 07:03:14;;;;;;;32.60;15.80;;;;;;;7.64;100.00;99385.16;1672892;86;21209;-86
2023/03/16 07:06:21;;;;;;;36.13;16.50;;;;;;;7.66;100.00;99384.45;1672918;86;21220;-87
2023/03/16 07:09:28;;;;;;;40.70;18.80;;;;;;;7.73;100.00;99385.95;1672710;86;21232;-87
2023/03/16 07:12:36;;;;;;;43.05;19.50;;;;;;;7.75;100.00;99383.36;1668394;86;21199;-87
2023/03/16 07:15:43;;;;;;;38.42;16.07;;;;;;;7.76;100.00;99385.05;1667632;86;21769;-88
2023/03/16 07:18:51;;;;;;;34.75;15.55;;;;;;;7.79;100.00;99388.78;1663911;86;21735;-88
2023/03/16 07:21:56;;;;;;;43.08;17.07;;;;;;;7.93;100.00;99390.73;1643016;87;21221;-88
2023/03/16 07:25:04;;;;;;;41.80;14.50;;;;;;;7.89;100.00;99389.91;1642236;87;21194;-88
2023/03/16 07:28:12;;;;;;;45.83;15.80;;;;;;;7.98;100.00;99390.70;1644102;86;21141;-87
2023/03/16 07:31:21;;;;;;;41.20;15.35;;;;;;;8.00;100.00;99390.86;1642181;86;21260;-87
2023/03/16 07:34:29;;;;;;;33.70;13.72;;;;;;;8.16;100.00;99392.08;1644015;86;21668;-87
2023/03/16 07:37:36;;;;;;;36.00;15.40;;;;;;;8.18;100.00;99388.64;1677882;85;21192;-88
2023/03/16 07:40:45;;;;;;;46.37;16.67;;;;;;;8.18;100.00;99388.64;1663980;86;21244;-87
2023/03/16 07:43:52;;;;;;;41.42;18.30;;;;;;;8.25;100.00;99383.84;1654826;85;21217;-88
2023/03/16 07:47:00;;;;;;;43.78;15.83;;;;;;;8.33;100.00;99383.78;1638810;87;21921;-88
2023/03/16 07:50:07;;;;;;;42.17;16.02;;;;;;;8.39;100.00;99387.15;1639055;87;21216;-88
2023/03/16 07:53:15;;;;;;;42.98;15.25;;;;;;;8.34;100.00;99390.39;1647196;86;21208;-88
2023/03/16 07:56:26;;;;;;;40.58;14.73;;;;;;;8.37;100.00;99385.95;1628852;86;21778;-88
2023/03/16 07:59:35;;;;;;;36.35;14.43;;;;;;;8.40;100.00;99387.48;1646435;86;21823;-87
2023/03/16 08:02:37;;;;;;;40.65;16.77;;;;;;;8.44;100.00;99391.53;1645951;86;21261;-88
2023/03/16 08:05:43;;;;;;;30.02;14.15;;;;;;;8.52;100.00;99386.01;1636949;87;21255;-87
2023/03/16 08:08:51;;;;;;;42.75;15.15;;;;;;;8.53;100.00;99393.66;1650920;83;21204;-88
2023/03/16 08:11:58;;;;;;;53.70;16.75;;;;;;;8.48;100.00;99386.05;1623582;86;21181;-87
2023/03/16 08:15:05;;;;;;;40.80;16.67;;;;;;;8.56;100.00;99398.72;1644861;83;21209;-87
2023/03/16 08:18:12;;;;;;;60.33;23.20;;;;;;;8.56;100.00;99397.36;1642919;87;21279;-88
2023/03/16 08:21:20;;;;;;;39.45;16.20;;;;;;;8.45;100.00;99402.23;1642325;83;21241;-88
2023/03/16 08:24:26;;;;;;;42.03;16.73;;;;;;;8.58;100.00;99402.97;1652943;86;21193;-88
2023/03/16 08:27:34;;;;;;;40.25;20.00;;;;;;;8.69;100.00;99401.66;1660889;82;21510;-87
2023/03/16 08:30:40;;;;;;;37.50;14.60;;;;;;;8.78;100.00;99403.80;1662134;86;21283;-88
2023/03/16 08:33:53;;;;;;;36.28;14.25;;;;;;;8.84;100.00;99406.61;1670538;81;21240;-89
2023/03/16 08:37:01;;;;;;;43.58;14.35;;;;;;;8.94;100.00;99411.29;1672368;85;21310;-89
2023/03/16 08:40:21;;;;;;;33.85;13.48;;;;;;;9.11;100.00;99413.30;1653704;86;21859;-89
2023/03/16 08:43:24;;;;;;;39.78;14.38;;;;;;;9.15;100.00;99412.41;1672209;84;21164;-90
2023/03/16 08:46:30;;;;;;;39.10;14.83;;;;;;;9.16;100.00;99415.45;1670341;82;21179;-89
2023/03/16 08:49:37;;;;;;;38.38;13.75;;;;;;;9.17;100.00;99411.69;1655210;82;22314;-90
2023/03/16 08:52:42;;;;;;;38.95;13.38;;;;;;;9.20;100.00;99412.16;1663268;82;21289;-89
2023/03/16 08:55:48;;;;;;;38.85;12.45;;;;;;;9.23;100.00;99410.95;1645293;83;21256;-89
2023/03/16 08:58:54;;;;;;;46.33;15.05;;;;;;;9.30;100.00;99403.69;1669155;85;21491;-89
2023/03/16 09:01:59;;;;;;;32.45;12.00;;;;;;;9.34;100.00;99413.19;1643583;86;21208;-90
2023/03/16 09:05:05;;;;;;;37.10;13.85;;;;;;;9.43;100.00;99415.30;1653360;85;21478;-90
2023/03/16 09:08:11;;;;;;;28.15;12.47;;;;;;;9.41;100.00;99405.07;1658063;86;21784;-90
2023/03/16 09:11:19;;;;;;;26.17;11.35;;;;;;;9.43;100.00;99410.68;1675684;81;21252;-89
2023/03/16 09:14:24;;;;;;;29.75;12.07;;;;;;;9.46;100.00;99417.66;1670246;85;21200;-89
2023/03/16 09:17:31;;;;;;;39.40;12.80;;;;;;;9.54;100.00;99421.62;1648856;86;21272;-89
2023/03/16 09:20:29;;;;;;;32.88;12.13;;;;;;;9.66;100.00;99423.35;1661585;86;21748;-89
2023/03/16 09:23:40;;;;;;;33.00;11.88;;;;;;;9.79;100.00;99427.61;1663727;84;21232;-89
2023/03/16 09:26:45;;;;;;;21.77;10.20;;;;;;;9.90;100.00;99427.09;1657560;86;21287;-89
2023/03/16 09:29:54;;;;;;;24.32;10.98;;;;;;;10.09;100.00;99431.08;1664302;85;21227;-90
2023/03/16 09:32:59;;;;;;;25.02;10.80;;;;;;;10.08;100.00;99432.13;1658926;86;21184;-89
2023/03/16 09:36:05;;;;;;;27.73;9.38;;;;;;;10.18;100.00;99427.70;1659361;86;21224;-89
2023/03/16 09:39:12;;;;;;;20.02;9.68;;;;;;;10.28;100.00;99425.51;1662452;85;21208;-89
2023/03/16 09:42:42;;;;;;;21.37;9.40;;;;;;;10.37;100.00;99427.06;1665834;86;21196;-90
2023/03/16 09:46:10;;;;;;;27.30;8.90;;;;;;;10.42;100.00;99428.69;1656536;84;21492;-90
2023/03/16 09:49:03;;;;;;;14.13;7.75;;;;;;;10.65;100.00;99423.52;1664630;86;21862;-90
2023/03/16 09:52:40;;;;;;;22.35;7.87;;;;;;;10.79;100.00;99425.84;1657732;84;21212;-90
2023/03/16 09:55:47;;;;;;;25.12;8.60;;;;;;;10.89;100.00;99425.80;1658946;86;21255;-90
2023/03/16 09:58:52;;;;;;;18.48;8.20;;;;;;;11.06;100.00;99426.88;1665714;82;21216;-90
2023/03/16 10:02:40;;;;;;;16.85;7.22;;;;;;;11.25;100.00;99424.24;1655381;86;21846;-90
2023/03/16 10:05:45;;;;;;;25.85;7.92;;;;;;;11.41;100.00;99424.95;1655482;85;21201;-89
2023/03/16 10:08:54;;;;;;;29.65;8.00;;;;;;;11.61;99.87;99418.19;1654288;86;21176;-89
2023/03/16 10:12:03;;;;;;;24.35;8.25;;;;;;;11.83;98.62;99417.56;1663416;84;21770;-89
2023/03/16 10:15:21;;;;;;;17.65;7.83;;;;;;;11.90;97.18;99419.78;1646274;86;21256;-89
2023/03/16 10:18:31;;;;;;;27.98;8.20;;;;;;;12.01;95.92;99420.05;1652399;86;21180;-90
2023/03/16 10:21:31;;;;;;;25.62;8.58;;;;;;;12.03;94.84;99408.33;1656278;86;21199;-90
2023/03/16 10:24:51;;;;;;;29.77;8.58;;;;;;;12.12;94.06;99399.92;1653315;86;21247;-89
2023/03/16 10:28:01;;;;;;;22.07;7.78;;;;;;;12.26;93.47;99400.25;1653982;86;21180;-90
2023/03/16 10:31:08;;;;;;;39.00;7.50;;;;;;;12.40;92.30;99412.92;1655121;86;21215;-88
2023/03/16 10:34:14;;;;;;;24.23;7.75;;;;;;;12.40;91.01;99403.33;1658832;86;21780;-89
2023/03/16 10:37:21;;;;;;;21.25;7.45;;;;;;;12.43;90.83;99405.66;1654184;86;21212;-89
2023/03/16 10:40:22;;;;;;;32.70;8.20;;;;;;;12.44;90.30;99395.00;1655997;86;22620;-89
2023/03/16 10:43:30;;;;;;;18.98;7.80;;;;;;;12.49;90.20;99394.37;1653082;86;21183;-89
2023/03/16 10:46:58;;;;;;;15.58;6.95;;;;;;;12.53;89.93;99386.88;1654042;86;21200;-89
2023/03/16 10:50:04;;;;;;;40.90;11.38;;;;;;;12.48;89.13;99385.30;1655894;86;21263;-89
2023/03/16 10:53:11;;;;;;;76.33;19.70;;;;;;;12.39;88.60;99385.19;1667798;85;21237;-89
2023/03/16 10:56:27;;;;;;;24.92;7.30;;;;;;;12.44;88.29;99387.30;1666579;85;21792;-89
2023/03/16 10:59:38;;;;;;;27.30;7.60;;;;;;;12.58;88.49;99386.77;1654171;86;22781;-89
2023/03/16 11:02:44;;;;;;;32.75;9.63;;;;;;;12.54;88.16;99394.58;1652972;86;21858;-89
2023/03/16 11:05:51;;;;;;;21.55;7.83;;;;;;;12.50;87.00;99392.77;1656696;86;21314;-90
2023/03/16 11:08:52;;;;;;;17.40;7.28;;;;;;;12.41;87.22;99396.78;1658351;86;21192;-89
2023/03/16 11:11:59;;;;;;;29.05;9.78;;;;;;;12.37;87.17;99395.51;1605738;89;21230;-89
2023/03/16 11:15:13;;;;;;;21.20;7.28;;;;;;;12.25;87.96;99398.05;1621644;87;21224;-89
2023/03/16 11:18:34;;;;;;;23.27;7.00;;;;;;;12.16;88.55;99399.83;1624173;87;21197;-90
2023/03/16 11:22:23;;;;;;;24.43;7.33;;;;;;;12.27;87.90;99404.68;1590822;88;21161;-89
2023/03/16 11:25:46;;;;;;;22.13;6.75;;;;;;;12.25;87.84;99402.69;1615530;87;21258;-89
2023/03/16 11:29:00;;;;;;;25.65;7.50;;;;;;;12.20;88.01;99398.36;1635429;87;21253;-89
2023/03/16 11:32:07;;;;;;;27.05;8.58;;;;;;;12.18;88.13;99399.08;1626276;87;21189;-89
2023/03/16 11:35:28;;;;;;;27.37;8.15;;;;;;;12.22;88.18;99398.45;1614011;88;21218;-89
2023/03/16 11:38:32;;;;;;;25.40;6.92;;;;;;;12.22;87.76;99387.48;1589191;89;21212;-90
2023/03/16 11:41:56;;;;;;;26.95;11.75;;;;;;;12.15;88.38;99388.55;1596146;89;21494;-89
2023/03/16 11:45:47;;;;;;;28.47;12.30;;;;;;;12.13;88.51;99383.78;1598076;88;21273;-89
2023/03/16 11:49:43;;;;;;;17.65;6.42;;;;;;;12.11;88.50;99379.05;1596655;89;21238;-90
2023/03/16 11:53:36;;;;;;;132.52;35.95;;;;;;;12.03;89.22;99376.81;1649814;85;21187;-89
2023/03/16 11:56:49;;;;;;;114.08;26.93;;;;;;;11.89;90.35;99379.73;1610308;89;21221;-90
2023/03/16 11:59:59;;;;;;;62.30;19.80;;;;;;;11.82;90.82;99374.26;1626204;87;21265;-89
2023/03/16 12:03:35;;;;;;;93.33;28.27;;;;;;;11.65;91.51;99377.85;1654534;86;21200;-89
2023/03/16 12:07:10;;;;;;;29.23;9.78;;;;;;;11.48;92.19;99377.39;1673007;85;21232;-89
2023/03/16 12:10:24;;;;;;;24.98;8.45;;;;;;;11.47;92.88;99381.16;1670987;83;21232;-89
2023/03/16 12:13:59;;;;;;;32.08;8.53;;;;;;;11.18;94.38;99380.08;1660287;85;21188;-90
2023/03/16 12:17:11;;;;;;;19.32;7.30;;;;;;;11.03;95.66;99383.48;1684246;81;22482;-89
2023/03/16 12:20:28;;;;;;;21.45;7.80;;;;;;;10.86;96.95;99390.63;1680964;81;21173;-89
2023/03/16 12:23:46;;;;;;;18.92;7.40;;;;;;;10.83;97.40;99389.67;1682354;85;21271;-88
2023/03/16 12:26:52;;;;;;;25.30;7.72;;;;;;;10.87;97.93;99387.36;1664820;85;21780;-89
2023/03/16 12:30:29;;;;;;;26.80;8.68;;;;;;;10.95;98.45;99397.63;1678528;85;21763;-89
2023/03/16 12:33:48;;;;;;;20.25;8.40;;;;;;;11.06;98.24;99404.45;1659800;86;21232;-88
2023/03/16 12:37:13;;;;;;;59.42;21.97;;;;;;;11.02;98.23;99402.32;1675611;85;21252;-90
2023/03/16 12:40:38;;;;;;;28.57;10.45;;;;;;;11.04;97.76;99398.84;1651031;85;21223;-89
2023/03/16 12:44:03;;;;;;;27.27;7.50;;;;;;;11.13;97.20;99401.74;1651333;87;21307;-89
2023/03/16 12:47:31;;;;;;;21.23;8.03;;;;;;;11.06;97.48;99407.72;1651128;87;21283;-89
2023/03/16 12:50:37;;;;;;;115.55;53.83;;;;;;;11.18;97.06;99411.55;1670403;85;21810;-89
2023/03/16 12:53:59;;;;;;;35.58;15.68;;;;;;;11.04;97.82;99413.89;1675585;85;21312;-89
2023/03/16 12:57:13;;;;;;;20.82;10.50;;;;;;;11.06;98.12;99421.40;1656206;86;21227;-88
2023/03/16 13:00:20;;;;;;;29.23;9.45;;;;;;;10.95;98.49;99426.36;1663468;85;21553;-88
2023/03/16 13:03:28;;;;;;;40.58;25.82;;;;;;;10.98;98.94;99423.77;1683887;84;21240;-89
2023/03/16 13:06:37;;;;;;;70.83;42.67;;;;;;;10.97;99.25;99428.39;1670093;85;21213;-89
2023/03/16 13:09:44;;;;;;;35.50;16.20;;;;;;;11.02;98.99;99436.00;1671591;84;21243;-89
2023/03/16 13:12:50;;;;;;;70.57;48.87;;;;;;;10.83;98.96;99431.23;1661862;85;21201;-88
2023/03/16 13:15:58;;;;;;;31.05;16.23;;;;;;;10.81;99.34;99438.25;1650813;86;21265;-88
2023/03/16 13:19:03;;;;;;;25.77;13.90;;;;;;;10.81;99.63;99442.36;1669491;85;21172;-88
2023/03/16 13:22:46;;;;;;;24.75;13.68;;;;;;;10.73;99.73;99441.16;1674845;84;21239;-88
2023/03/16 13:26:09;;;;;;;27.32;15.28;;;;;;;10.57;100.00;99444.16;1661420;85;21224;-88
2023/03/16 13:29:33;;;;;;;31.85;13.58;;;;;;;10.47;100.00;99446.71;1660832;85;21243;-89
2023/03/16 13:32:39;;;;;;;35.50;12.37;;;;;;;10.37;100.00;99447.57;1673795;85;21224;-89
2023/03/16 13:35:44;;;;;;;18.82;10.98;;;;;;;10.28;100.00;99444.64;1658823;85;21199;-89
2023/03/16 13:38:51;;;;;;;35.88;22.93;;;;;;;10.24;100.00;99445.55;1664858;85;21823;-88
2023/03/16 13:42:26;;;;;;;26.05;14.10;;;;;;;10.21;100.00;99440.45;1642542;85;21569;-89
2023/03/16 13:45:43;;;;;;;22.22;13.32;;;;;;;10.26;100.00;99444.01;1667113;85;21224;-88
2023/03/16 13:48:50;;;;;;;27.67;13.75;;;;;;;10.26;100.00;99445.37;1661128;85;21564;-88
2023/03/16 13:51:56;;;;;;;29.67;14.23;;;;;;;10.22;100.00;99452.23;1669259;85;21862;-89
2023/03/16 13:55:06;;;;;;;30.08;14.63;;;;;;;10.17;100.00;99455.55;1646161;85;21220;-88
2023/03/16 13:58:36;;;;;;;21.62;11.18;;;;;;;10.18;100.00;99461.34;1636024;82;21289;-89
2023/03/16 14:01:41;;;;;;;28.62;11.95;;;;;;;10.25;100.00;99465.52;1653544;85;21783;-89
2023/03/16 14:04:47;;;;;;;23.83;11.30;;;;;;;10.31;100.00;99471.59;1650740;83;21883;-89
2023/03/16 14:07:49;;;;;;;25.12;12.73;;;;;;;10.36;100.00;99478.69;1650583;83;21256;-89
2023/03/16 14:10:43;;;;;;;27.82;12.37;;;;;;;10.42;100.00;99484.73;1651455;87;21815;-88
2023/03/16 14:13:51;;;;;;;26.37;12.65;;;;;;;10.41;100.00;99493.98;1651532;87;21149;-89
2023/03/16 14:17:01;;;;;;;25.12;12.75;;;;;;;10.43;100.00;99493.25;1634219;83;21216;-89
2023/03/16 14:20:06;;;;;;;23.38;12.45;;;;;;;10.44;100.00;99488.63;1651768;87;21828;-88
2023/03/16 14:23:24;;;;;;;35.05;18.17;;;;;;;10.38;100.00;99486.16;1633733;87;21161;-89
2023/03/16 14:26:31;;;;;;;35.92;17.30;;;;;;;10.29;100.00;99493.31;1651436;87;21243;-89
2023/03/16 14:29:37;;;;;;;37.17;17.73;;;;;;;10.29;100.00;99502.88;1652405;87;21257;-88
2023/03/16 14:32:42;;;;;;;41.25;19.92;;;;;;;10.32;100.00;99499.77;1633562;87;21260;-89
2023/03/16 14:35:51;;;;;;;56.95;34.08;;;;;;;10.34;100.00;99501.78;1653167;87;21200;-88